PWSweather.com
Personal Weather Stations
Station Observations
UPSTATEWEATHER
Silver Leaf, Greer, SC 29650

Silver LeafGreer, SC 29650

Lat: 34.8955792, Lon: -82.2868211

Elevation: 875

Station Type: Davis Vantage Vue

https://www.upstateweather.com

High Low Average
Temperature 85.7°F29.8°C 68.1°F20.1°C 76.1°F24.5°C
Dew Point 74.3°F23.5°C 64.7°F18.2°C 70.1°F21.2°C
Winds 1.2 mph 1.9 kmh Calm Calm Calm NCalm N
Wind Gusts 2.3 mph3.7 kmh -- --
Humidity 97% 50% 83%
Pressure 30.17 in1021.7 mb 30.04 in1017.3 mb -
Precipitation 0.00 in0.0 mm - -
Hour Temp Dew Point Humidity Winds Wind Gusts Pressure Precip Precip Rate Daily Precip Total
12:00 AM 72.2°F22.3°C 70.7°F21.5°C 95% Calm Calm -- 30.16 in1021.3 mb - 0.00 in0.0 mm 0.00 in0.0 mm
12:15 AM 72.1°F22.3°C 70.6°F21.4°C 95% Calm Calm -- 30.17 in1021.7 mb - 0.00 in0.0 mm 0.00 in0.0 mm
12:30 AM 71.9°F22.2°C 70.4°F21.3°C 95% Calm Calm -- 30.17 in1021.7 mb - 0.00 in0.0 mm 0.00 in0.0 mm
12:45 AM 71.7°F22.1°C 70.2°F21.2°C 95% Calm Calm -- 30.16 in1021.3 mb - 0.00 in0.0 mm 0.00 in0.0 mm
01:00 AM 71.6°F22.0°C 70.1°F21.2°C 95% Calm Calm -- 30.16 in1021.3 mb - 0.00 in0.0 mm 0.00 in0.0 mm
01:15 AM 71.4°F21.9°C 69.9°F21.1°C 95% Calm Calm -- 30.16 in1021.3 mb - 0.00 in0.0 mm 0.00 in0.0 mm
01:30 AM 71.2°F21.8°C 70.0°F21.1°C 96% Calm Calm -- 30.15 in1021.0 mb - 0.00 in0.0 mm 0.00 in0.0 mm
01:45 AM 71.0°F21.7°C 69.8°F21.0°C 96% Calm Calm -- 30.15 in1021.0 mb - 0.00 in0.0 mm 0.00 in0.0 mm
02:00 AM 70.8°F21.6°C 69.6°F20.9°C 96% Calm Calm -- 30.14 in1020.7 mb - 0.00 in0.0 mm 0.00 in0.0 mm
02:15 AM 70.7°F21.5°C 69.5°F20.8°C 96% Calm Calm -- 30.14 in1020.7 mb - 0.00 in0.0 mm 0.00 in0.0 mm
02:30 AM 70.4°F21.3°C 69.2°F20.7°C 96% Calm Calm -- 30.14 in1020.7 mb - 0.00 in0.0 mm 0.00 in0.0 mm
02:45 AM 70.1°F21.2°C 68.9°F20.5°C 96% Calm Calm -- 30.13 in1020.3 mb - 0.00 in0.0 mm 0.00 in0.0 mm
03:00 AM 70.0°F21.1°C 68.8°F20.4°C 96% Calm Calm -- 30.13 in1020.3 mb - 0.00 in0.0 mm 0.00 in0.0 mm
03:15 AM 69.7°F20.9°C 68.5°F20.3°C 96% Calm Calm -- 30.13 in1020.3 mb - 0.00 in0.0 mm 0.00 in0.0 mm
03:30 AM 69.6°F20.9°C 68.4°F20.2°C 96% Calm Calm -- 30.13 in1020.3 mb - 0.00 in0.0 mm 0.00 in0.0 mm
03:45 AM 69.3°F20.7°C 68.1°F20.1°C 96% Calm Calm -- 30.13 in1020.3 mb - 0.00 in0.0 mm 0.00 in0.0 mm
04:00 AM 69.2°F20.7°C 68.0°F20.0°C 96% Calm Calm -- 30.12 in1020.0 mb - 0.00 in0.0 mm 0.00 in0.0 mm
04:15 AM 69.1°F20.6°C 67.9°F19.9°C 96% Calm Calm -- 30.12 in1020.0 mb - 0.00 in0.0 mm 0.00 in0.0 mm
04:30 AM 69.0°F20.6°C 67.8°F19.9°C 96% Calm Calm -- 30.12 in1020.0 mb - 0.00 in0.0 mm 0.00 in0.0 mm
04:45 AM 68.9°F20.5°C 67.7°F19.8°C 96% Calm Calm -- 30.13 in1020.3 mb - 0.00 in0.0 mm 0.00 in0.0 mm
05:00 AM 68.7°F20.4°C 67.5°F19.7°C 96% Calm Calm -- 30.13 in1020.3 mb - 0.00 in0.0 mm 0.00 in0.0 mm
05:15 AM 68.6°F20.3°C 67.7°F19.8°C 97% Calm Calm -- 30.13 in1020.3 mb - 0.00 in0.0 mm 0.00 in0.0 mm
05:30 AM 68.4°F20.2°C 67.5°F19.7°C 97% Calm Calm -- 30.14 in1020.7 mb - 0.00 in0.0 mm 0.00 in0.0 mm
05:45 AM 68.4°F20.2°C 67.5°F19.7°C 97% Calm Calm -- 30.14 in1020.7 mb - 0.00 in0.0 mm 0.00 in0.0 mm
06:00 AM 68.3°F20.2°C 67.4°F19.7°C 97% Calm Calm -- 30.14 in1020.7 mb - 0.00 in0.0 mm 0.00 in0.0 mm
06:15 AM 68.2°F20.1°C 67.3°F19.6°C 97% Calm Calm -- 30.15 in1021.0 mb - 0.00 in0.0 mm 0.00 in0.0 mm
06:30 AM 68.2°F20.1°C 67.3°F19.6°C 97% Calm Calm -- 30.15 in1021.0 mb - 0.00 in0.0 mm 0.00 in0.0 mm
06:45 AM 68.1°F20.1°C 67.2°F19.6°C 97% Calm Calm -- 30.15 in1021.0 mb - 0.00 in0.0 mm 0.00 in0.0 mm
07:00 AM 68.4°F20.2°C 67.5°F19.7°C 97% Calm Calm -- 30.15 in1021.0 mb - 0.00 in0.0 mm 0.00 in0.0 mm
07:15 AM 68.6°F20.3°C 67.7°F19.8°C 97% Calm Calm -- 30.16 in1021.3 mb - 0.00 in0.0 mm 0.00 in0.0 mm
07:30 AM 69.1°F20.6°C 68.2°F20.1°C 97% Calm Calm -- 30.16 in1021.3 mb - 0.00 in0.0 mm 0.00 in0.0 mm
07:45 AM 69.7°F20.9°C 68.8°F20.4°C 97% Calm Calm -- 30.16 in1021.3 mb - 0.00 in0.0 mm 0.00 in0.0 mm
08:00 AM 70.3°F21.3°C 69.2°F20.7°C 96% Calm Calm -- 30.16 in1021.3 mb - 0.00 in0.0 mm 0.00 in0.0 mm
08:15 AM 71.1°F21.7°C 69.9°F21.1°C 96% Calm Calm -- 30.17 in1021.7 mb - 0.00 in0.0 mm 0.00 in0.0 mm
08:30 AM 72.3°F22.4°C 70.8°F21.6°C 95% Calm Calm -- 30.17 in1021.7 mb - 0.00 in0.0 mm 0.00 in0.0 mm
08:45 AM 74.0°F23.3°C 72.1°F22.3°C 94% Calm Calm -- 30.17 in1021.7 mb - 0.00 in0.0 mm 0.00 in0.0 mm
09:00 AM 75.3°F24.1°C 72.8°F22.7°C 92% Calm Calm 1.2 mph1.9 kmh 30.16 in1021.3 mb - 0.00 in0.0 mm 0.00 in0.0 mm
09:15 AM 76.3°F24.6°C 72.8°F22.7°C 89% Calm Calm -- 30.17 in1021.7 mb - 0.00 in0.0 mm 0.00 in0.0 mm
09:30 AM 77.4°F25.2°C 73.2°F22.9°C 87% Calm Calm 2.3 mph3.7 kmh 30.16 in1021.3 mb - 0.00 in0.0 mm 0.00 in0.0 mm
09:45 AM 77.4°F25.2°C 73.2°F22.9°C 87% Calm Calm -- 30.16 in1021.3 mb - 0.00 in0.0 mm 0.00 in0.0 mm
10:00 AM 77.6°F25.3°C 73.4°F23.0°C 87% Calm Calm -- 30.16 in1021.3 mb - 0.00 in0.0 mm 0.00 in0.0 mm
10:15 AM 78.2°F25.7°C 73.7°F23.2°C 86% Calm Calm 1.2 mph1.9 kmh 30.16 in1021.3 mb - 0.00 in0.0 mm 0.00 in0.0 mm
10:30 AM 79.0°F26.1°C 74.1°F23.4°C 85% Calm Calm -- 30.16 in1021.3 mb - 0.00 in0.0 mm 0.00 in0.0 mm
10:45 AM 79.8°F26.6°C 73.4°F23.0°C 81% Calm Calm 1.2 mph1.9 kmh 30.16 in1021.3 mb - 0.00 in0.0 mm 0.00 in0.0 mm
11:00 AM 80.4°F26.9°C 74.0°F23.3°C 81% Calm Calm -- 30.15 in1021.0 mb - 0.00 in0.0 mm 0.00 in0.0 mm
11:15 AM 80.8°F27.1°C 74.0°F23.3°C 80% Calm Calm -- 30.14 in1020.7 mb - 0.00 in0.0 mm 0.00 in0.0 mm
11:30 AM 81.0°F27.2°C 73.8°F23.2°C 79% Calm Calm -- 30.14 in1020.7 mb - 0.00 in0.0 mm 0.00 in0.0 mm
11:45 AM 80.9°F27.2°C 73.8°F23.2°C 79% Calm Calm -- 30.14 in1020.7 mb - 0.00 in0.0 mm 0.00 in0.0 mm
12:00 PM 82.0°F27.8°C 74.1°F23.4°C 77% Calm Calm -- 30.14 in1020.7 mb - 0.00 in0.0 mm 0.00 in0.0 mm
12:15 PM 81.2°F27.3°C 73.3°F22.9°C 77% Calm Calm -- 30.14 in1020.7 mb - 0.00 in0.0 mm 0.00 in0.0 mm
12:30 PM 82.6°F28.1°C 74.3°F23.5°C 76% Calm Calm -- 30.13 in1020.3 mb - 0.00 in0.0 mm 0.00 in0.0 mm
12:45 PM 83.9°F28.8°C 72.6°F22.6°C 69% Calm Calm 1.2 mph1.9 kmh 30.12 in1020.0 mb - 0.00 in0.0 mm 0.00 in0.0 mm
01:00 PM 83.6°F28.7°C 72.8°F22.7°C 70% Calm Calm -- 30.11 in1019.6 mb - 0.00 in0.0 mm 0.00 in0.0 mm
01:15 PM 83.7°F28.7°C 73.7°F23.2°C 72% 1.2 mph N1.9 kmh N 2.3 mph3.7 kmh 30.11 in1019.6 mb - 0.00 in0.0 mm 0.00 in0.0 mm
01:30 PM 84.3°F29.1°C 73.0°F22.8°C 69% Calm Calm -- 30.10 in1019.3 mb - 0.00 in0.0 mm 0.00 in0.0 mm
01:45 PM 85.1°F29.5°C 73.3°F22.9°C 68% Calm Calm 1.2 mph1.9 kmh 30.09 in1019.0 mb - 0.00 in0.0 mm 0.00 in0.0 mm
02:00 PM 84.9°F29.4°C 71.4°F21.9°C 64% Calm Calm 1.2 mph1.9 kmh 30.09 in1019.0 mb - 0.00 in0.0 mm 0.00 in0.0 mm
02:15 PM 85.6°F29.8°C 72.5°F22.5°C 65% Calm Calm -- 30.08 in1018.6 mb - 0.00 in0.0 mm 0.00 in0.0 mm
02:30 PM 85.6°F29.8°C 72.0°F22.2°C 64% 1.2 mph N1.9 kmh N 2.3 mph3.7 kmh 30.07 in1018.3 mb - 0.00 in0.0 mm 0.00 in0.0 mm
02:45 PM 85.7°F29.8°C 72.1°F22.3°C 64% 1.2 mph N1.9 kmh N 2.3 mph3.7 kmh 30.07 in1018.3 mb - 0.00 in0.0 mm 0.00 in0.0 mm
03:00 PM 85.7°F29.8°C 72.1°F22.3°C 64% Calm Calm -- 30.06 in1017.9 mb - 0.00 in0.0 mm 0.00 in0.0 mm
03:15 PM 85.5°F29.7°C 70.0°F21.1°C 60% 1.2 mph N1.9 kmh N 2.3 mph3.7 kmh 30.06 in1017.9 mb - 0.00 in0.0 mm 0.00 in0.0 mm
03:30 PM 85.6°F29.8°C 69.1°F20.6°C 58% 1.2 mph N1.9 kmh N 1.2 mph1.9 kmh 30.05 in1017.6 mb - 0.00 in0.0 mm 0.00 in0.0 mm
03:45 PM 85.4°F29.7°C 68.4°F20.2°C 57% Calm Calm 1.2 mph1.9 kmh 30.05 in1017.6 mb - 0.00 in0.0 mm 0.00 in0.0 mm
04:00 PM 85.0°F29.4°C 68.1°F20.1°C 57% 1.2 mph N1.9 kmh N 2.3 mph3.7 kmh 30.05 in1017.6 mb - 0.00 in0.0 mm 0.00 in0.0 mm
04:15 PM 85.4°F29.7°C 66.8°F19.3°C 54% Calm Calm 1.2 mph1.9 kmh 30.04 in1017.3 mb - 0.00 in0.0 mm 0.00 in0.0 mm
04:30 PM 85.5°F29.7°C 64.7°F18.2°C 50% Calm Calm -- 30.04 in1017.3 mb - 0.00 in0.0 mm 0.00 in0.0 mm
04:45 PM 85.1°F29.5°C 67.7°F19.8°C 56% Calm Calm -- 30.04 in1017.3 mb - 0.00 in0.0 mm 0.00 in0.0 mm
05:00 PM 84.9°F29.4°C 69.0°F20.6°C 59% Calm Calm -- 30.04 in1017.3 mb - 0.00 in0.0 mm 0.00 in0.0 mm
05:15 PM 84.0°F28.9°C 69.1°F20.6°C 61% Calm Calm -- 30.05 in1017.6 mb - 0.00 in0.0 mm 0.00 in0.0 mm
05:30 PM 83.6°F28.7°C 67.8°F19.9°C 59% Calm Calm -- 30.04 in1017.3 mb - 0.00 in0.0 mm 0.00 in0.0 mm
05:45 PM 83.0°F28.3°C 70.0°F21.1°C 65% Calm Calm -- 30.04 in1017.3 mb - 0.00 in0.0 mm 0.00 in0.0 mm
06:00 PM 82.4°F28.0°C 69.4°F20.8°C 65% Calm Calm -- 30.04 in1017.3 mb - 0.00 in0.0 mm 0.00 in0.0 mm
06:15 PM 81.8°F27.7°C 69.8°F21.0°C 67% Calm Calm -- 30.04 in1017.3 mb - 0.00 in0.0 mm 0.00 in0.0 mm
06:30 PM 81.2°F27.3°C 70.5°F21.4°C 70% Calm Calm -- 30.04 in1017.3 mb - 0.00 in0.0 mm 0.00 in0.0 mm
06:45 PM 80.4°F26.9°C 70.9°F21.6°C 73% Calm Calm -- 30.05 in1017.6 mb - 0.00 in0.0 mm 0.00 in0.0 mm
07:00 PM 79.3°F26.3°C 70.3°F21.3°C 74% Calm Calm -- 30.04 in1017.3 mb - 0.00 in0.0 mm 0.00 in0.0 mm
07:15 PM 78.4°F25.8°C 69.4°F20.8°C 74% Calm Calm -- 30.04 in1017.3 mb - 0.00 in0.0 mm 0.00 in0.0 mm
07:30 PM 77.9°F25.5°C 69.7°F20.9°C 76% Calm Calm -- 30.04 in1017.3 mb - 0.00 in0.0 mm 0.00 in0.0 mm
07:45 PM 77.3°F25.2°C 69.5°F20.8°C 77% Calm Calm -- 30.05 in1017.6 mb - 0.00 in0.0 mm 0.00 in0.0 mm
08:00 PM 76.6°F24.8°C 69.6°F20.9°C 79% Calm Calm -- 30.06 in1017.9 mb - 0.00 in0.0 mm 0.00 in0.0 mm
08:15 PM 75.6°F24.2°C 69.0°F20.6°C 80% Calm Calm -- 30.05 in1017.6 mb - 0.00 in0.0 mm 0.00 in0.0 mm
08:30 PM 75.1°F23.9°C 68.8°F20.4°C 81% Calm Calm -- 30.06 in1017.9 mb - 0.00 in0.0 mm 0.00 in0.0 mm
08:45 PM 74.5°F23.6°C 69.3°F20.7°C 84% Calm Calm -- 30.07 in1018.3 mb - 0.00 in0.0 mm 0.00 in0.0 mm
09:00 PM 74.0°F23.3°C 69.2°F20.7°C 85% Calm Calm -- 30.07 in1018.3 mb - 0.00 in0.0 mm 0.00 in0.0 mm
09:15 PM 73.8°F23.2°C 69.3°F20.7°C 86% Calm Calm -- 30.07 in1018.3 mb - 0.00 in0.0 mm 0.00 in0.0 mm
09:30 PM 73.6°F23.1°C 69.2°F20.7°C 86% Calm Calm -- 30.07 in1018.3 mb - 0.00 in0.0 mm 0.00 in0.0 mm
09:45 PM 73.7°F23.2°C 69.2°F20.7°C 86% Calm Calm -- 30.08 in1018.6 mb - 0.00 in0.0 mm 0.00 in0.0 mm
10:00 PM 73.5°F23.1°C 69.4°F20.8°C 87% Calm Calm -- 30.08 in1018.6 mb - 0.00 in0.0 mm 0.00 in0.0 mm
10:15 PM 73.1°F22.8°C 69.3°F20.7°C 88% Calm Calm -- 30.08 in1018.6 mb - 0.00 in0.0 mm 0.00 in0.0 mm
10:30 PM 72.9°F22.7°C 69.5°F20.8°C 89% Calm Calm -- 30.08 in1018.6 mb - 0.00 in0.0 mm 0.00 in0.0 mm
10:45 PM 72.4°F22.4°C 69.3°F20.7°C 90% Calm Calm -- 30.08 in1018.6 mb - 0.00 in0.0 mm 0.00 in0.0 mm
11:00 PM 72.1°F22.3°C 69.3°F20.7°C 91% Calm Calm -- 30.08 in1018.6 mb - 0.00 in0.0 mm 0.00 in0.0 mm
11:15 PM 71.8°F22.1°C 69.0°F20.6°C 91% Calm Calm -- 30.08 in1018.6 mb - 0.00 in0.0 mm 0.00 in0.0 mm
11:30 PM 71.8°F22.1°C 69.3°F20.7°C 92% Calm Calm -- 30.08 in1018.6 mb - 0.00 in0.0 mm 0.00 in0.0 mm
11:45 PM 71.7°F22.1°C 69.3°F20.7°C 92% Calm Calm -- 30.08 in1018.6 mb - 0.00 in0.0 mm 0.00 in0.0 mm